sensor_id;sensor_type;location;lat;lon;timestamp;pressure;altitude;pressure_sealevel;temperature;humidity
37792;BME280;29527;55.766;37.570;2024-01-27T00:00:39;99702.44;;;-2.75;64.62
37792;BME280;29527;55.766;37.570;2024-01-27T00:03:05;99701.63;;;-2.77;64.10
37792;BME280;29527;55.766;37.570;2024-01-27T00:05:30;99685.28;;;-2.85;64.37
37792;BME280;29527;55.766;37.570;2024-01-27T00:07:56;99679.44;;;-2.96;65.06
37792;BME280;29527;55.766;37.570;2024-01-27T00:10:21;99690.03;;;-2.99;65.06
37792;BME280;29527;55.766;37.570;2024-01-27T00:12:46;99692.88;;;-2.76;64.38
37792;BME280;29527;55.766;37.570;2024-01-27T00:15:12;99687.63;;;-2.76;63.27
37792;BME280;29527;55.766;37.570;2024-01-27T00:17:37;99694.47;;;-3.03;64.84
37792;BME280;29527;55.766;37.570;2024-01-27T00:20:03;99639.69;;;-3.44;64.98
37792;BME280;29527;55.766;37.570;2024-01-27T00:22:28;99696.56;;;-3.16;65.34
37792;BME280;29527;55.766;37.570;2024-01-27T00:24:54;99685.25;;;-3.18;65.57
37792;BME280;29527;55.766;37.570;2024-01-27T00:27:19;99683.69;;;-2.92;64.82
37792;BME280;29527;55.766;37.570;2024-01-27T00:29:45;99685.66;;;-2.99;65.18
37792;BME280;29527;55.766;37.570;2024-01-27T00:32:10;99695.25;;;-2.99;65.15
37792;BME280;29527;55.766;37.570;2024-01-27T00:34:35;99669.75;;;-3.26;65.61
37792;BME280;29527;55.766;37.570;2024-01-27T00:37:01;99698.22;;;-3.12;65.73
37792;BME280;29527;55.766;37.570;2024-01-27T00:39:26;99688.41;;;-3.05;65.27
37792;BME280;29527;55.766;37.570;2024-01-27T00:41:52;99702.38;;;-3.05;65.15
37792;BME280;29527;55.766;37.570;2024-01-27T00:44:20;99636.75;;;-3.32;65.61
37792;BME280;29527;55.766;37.570;2024-01-27T00:46:45;99704.03;;;-3.00;65.57
37792;BME280;29527;55.766;37.570;2024-01-27T00:49:10;99688.28;;;-2.99;65.72
37792;BME280;29527;55.766;37.570;2024-01-27T00:51:36;99691.75;;;-2.98;65.38
37792;BME280;29527;55.766;37.570;2024-01-27T00:54:01;99691.66;;;-2.95;65.60
37792;BME280;29527;55.766;37.570;2024-01-27T00:56:27;99707.06;;;-2.84;65.17
37792;BME280;29527;55.766;37.570;2024-01-27T00:58:52;99695.91;;;-2.91;65.40
37792;BME280;29527;55.766;37.570;2024-01-27T01:01:18;99685.41;;;-2.91;65.17
37792;BME280;29527;55.766;37.570;2024-01-27T01:03:43;99703.63;;;-2.85;64.73
37792;BME280;29527;55.766;37.570;2024-01-27T01:06:10;99699.22;;;-2.84;65.12
37792;BME280;29527;55.766;37.570;2024-01-27T01:08:35;99682.81;;;-2.91;65.21
37792;BME280;29527;55.766;37.570;2024-01-27T01:11:00;99644.16;;;-3.14;64.82
37792;BME280;29527;55.766;37.570;2024-01-27T01:13:26;99694.06;;;-2.88;65.19
37792;BME280;29527;55.766;37.570;2024-01-27T01:15:51;99702.81;;;-2.87;65.36
37792;BME280;29527;55.766;37.570;2024-01-27T01:18:17;99647.69;;;-3.17;65.25
37792;BME280;29527;55.766;37.570;2024-01-27T01:20:42;99707.13;;;-2.86;65.05
37792;BME280;29527;55.766;37.570;2024-01-27T01:23:07;99711.47;;;-2.85;65.32
37792;BME280;29527;55.766;37.570;2024-01-27T01:25:33;99701.81;;;-2.83;65.52
37792;BME280;29527;55.766;37.570;2024-01-27T01:27:58;99700.81;;;-2.79;65.20
37792;BME280;29527;55.766;37.570;2024-01-27T01:30:24;99705.16;;;-2.78;64.90
37792;BME280;29527;55.766;37.570;2024-01-27T01:32:49;99704.97;;;-2.71;64.99
37792;BME280;29527;55.766;37.570;2024-01-27T01:35:15;99705.88;;;-2.72;65.02
37792;BME280;29527;55.766;37.570;2024-01-27T01:37:41;99698.75;;;-2.67;65.35
37792;BME280;29527;55.766;37.570;2024-01-27T01:40:06;99702.56;;;-2.48;63.82
37792;BME280;29527;55.766;37.570;2024-01-27T01:42:33;99702.31;;;-2.70;64.52
37792;BME280;29527;55.766;37.570;2024-01-27T01:44:58;99712.19;;;-2.80;64.69
37792;BME280;29527;55.766;37.570;2024-01-27T01:47:24;99704.97;;;-2.71;64.23
37792;BME280;29527;55.766;37.570;2024-01-27T01:49:50;99707.94;;;-2.84;64.60
37792;BME280;29527;55.766;37.570;2024-01-27T01:52:15;99691.75;;;-2.98;64.58
37792;BME280;29527;55.766;37.570;2024-01-27T01:54:49;99694.56;;;-2.73;63.44
37792;BME280;29527;55.766;37.570;2024-01-27T01:57:15;99701.03;;;-2.55;62.38
37792;BME280;29527;55.766;37.570;2024-01-27T01:59:41;99709.38;;;-2.72;62.80
37792;BME280;29527;55.766;37.570;2024-01-27T02:02:10;99712.97;;;-3.09;64.16
37792;BME280;29527;55.766;37.570;2024-01-27T02:04:45;99713.75;;;-3.06;64.87
37792;BME280;29527;55.766;37.570;2024-01-27T02:07:13;99696.78;;;-3.24;64.32
37792;BME280;29527;55.766;37.570;2024-01-27T02:09:39;99713.34;;;-3.23;65.01
37792;BME280;29527;55.766;37.570;2024-01-27T02:12:05;99733.16;;;-3.13;65.22
37792;BME280;29527;55.766;37.570;2024-01-27T02:14:30;99725.38;;;-3.16;64.92
37792;BME280;29527;55.766;37.570;2024-01-27T02:16:56;99729.66;;;-3.12;65.11
37792;BME280;29527;55.766;37.570;2024-01-27T02:19:22;99727.59;;;-3.00;64.37
37792;BME280;29527;55.766;37.570;2024-01-27T02:21:47;99733.72;;;-3.01;64.57
37792;BME280;29527;55.766;37.570;2024-01-27T02:24:13;99724.88;;;-2.97;63.80
37792;BME280;29527;55.766;37.570;2024-01-27T02:26:38;99722.75;;;-3.16;64.85
37792;BME280;29527;55.766;37.570;2024-01-27T02:29:04;99731.19;;;-3.05;64.63
37792;BME280;29527;55.766;37.570;2024-01-27T02:31:29;99748.81;;;-3.10;65.04
37792;BME280;29527;55.766;37.570;2024-01-27T02:33:55;99752.34;;;-3.12;64.99
37792;BME280;29527;55.766;37.570;2024-01-27T02:36:20;99727.22;;;-3.20;64.45
37792;BME280;29527;55.766;37.570;2024-01-27T02:38:46;99702.94;;;-3.26;63.91
37792;BME280;29527;55.766;37.570;2024-01-27T02:41:11;99751.16;;;-3.00;63.32
37792;BME280;29527;55.766;37.570;2024-01-27T02:43:37;99700.63;;;-3.39;63.49
37792;BME280;29527;55.766;37.570;2024-01-27T02:46:06;99736.38;;;-3.38;64.43
37792;BME280;29527;55.766;37.570;2024-01-27T02:48:31;99746.78;;;-3.35;65.15
37792;BME280;29527;55.766;37.570;2024-01-27T02:50:57;99747.63;;;-3.33;65.01
37792;BME280;29527;55.766;37.570;2024-01-27T02:53:22;99754.66;;;-3.35;64.26
37792;BME280;29527;55.766;37.570;2024-01-27T02:55:48;99750.81;;;-3.57;65.06
37792;BME280;29527;55.766;37.570;2024-01-27T02:58:13;99755.72;;;-3.43;64.68
37792;BME280;29527;55.766;37.570;2024-01-27T03:00:38;99753.97;;;-3.43;64.68
37792;BME280;29527;55.766;37.570;2024-01-27T03:03:04;99721.25;;;-3.63;63.83
37792;BME280;29527;55.766;37.570;2024-01-27T03:05:30;99747.16;;;-3.50;64.82
37792;BME280;29527;55.766;37.570;2024-01-27T03:07:55;99705.38;;;-3.91;65.00
37792;BME280;29527;55.766;37.570;2024-01-27T03:10:21;99758.34;;;-3.43;64.41
37792;BME280;29527;55.766;37.570;2024-01-27T03:12:46;99755.03;;;-3.52;64.63
37792;BME280;29527;55.766;37.570;2024-01-27T03:15:12;99753.38;;;-3.54;64.73
37792;BME280;29527;55.766;37.570;2024-01-27T03:17:37;99757.38;;;-3.77;65.46
37792;BME280;29527;55.766;37.570;2024-01-27T03:20:03;99746.84;;;-3.74;65.59
37792;BME280;29527;55.766;37.570;2024-01-27T03:22:28;99761.25;;;-3.56;64.77
37792;BME280;29527;55.766;37.570;2024-01-27T03:24:54;99754.19;;;-3.52;64.80
37792;BME280;29527;55.766;37.570;2024-01-27T03:27:20;99745.69;;;-3.62;64.85
37792;BME280;29527;55.766;37.570;2024-01-27T03:29:45;99765.50;;;-3.52;64.27
37792;BME280;29527;55.766;37.570;2024-01-27T03:32:11;99765.31;;;-3.42;63.98
37792;BME280;29527;55.766;37.570;2024-01-27T03:34:42;99765.00;;;-3.68;64.60
37792;BME280;29527;55.766;37.570;2024-01-27T03:37:08;99770.00;;;-3.57;63.88
37792;BME280;29527;55.766;37.570;2024-01-27T03:39:33;99780.50;;;-3.58;64.40
37792;BME280;29527;55.766;37.570;2024-01-27T03:41:59;99772.00;;;-3.68;64.71
37792;BME280;29527;55.766;37.570;2024-01-27T03:44:25;99786.00;;;-3.69;64.72
37792;BME280;29527;55.766;37.570;2024-01-27T03:46:51;99777.78;;;-3.54;64.49
37792;BME280;29527;55.766;37.570;2024-01-27T03:49:16;99763.13;;;-3.63;63.82
37792;BME280;29527;55.766;37.570;2024-01-27T03:51:41;99778.66;;;-3.53;63.95
37792;BME280;29527;55.766;37.570;2024-01-27T03:54:07;99772.09;;;-3.73;64.38
37792;BME280;29527;55.766;37.570;2024-01-27T03:56:32;99782.78;;;-3.82;64.96
37792;BME280;29527;55.766;37.570;2024-01-27T03:58:58;99737.69;;;-3.94;64.97
37792;BME280;29527;55.766;37.570;2024-01-27T04:01:23;99743.66;;;-3.89;64.06
37792;BME280;29527;55.766;37.570;2024-01-27T04:03:48;99798.47;;;-3.43;64.09
37792;BME280;29527;55.766;37.570;2024-01-27T04:06:14;99801.44;;;-3.58;64.13
37792;BME280;29527;55.766;37.570;2024-01-27T04:08:40;99811.91;;;-3.58;64.03
37792;BME280;29527;55.766;37.570;2024-01-27T04:11:09;99801.94;;;-3.82;64.58
37792;BME280;29527;55.766;37.570;2024-01-27T04:13:35;99802.09;;;-3.90;64.48
37792;BME280;29527;55.766;37.570;2024-01-27T04:16:01;99820.91;;;-3.70;64.42
37792;BME280;29527;55.766;37.570;2024-01-27T04:18:27;99822.19;;;-3.51;63.36
37792;BME280;29527;55.766;37.570;2024-01-27T04:20:52;99824.28;;;-3.67;63.85
37792;BME280;29527;55.766;37.570;2024-01-27T04:23:17;99817.34;;;-3.68;63.57
37792;BME280;29527;55.766;37.570;2024-01-27T04:25:43;99816.72;;;-3.79;64.18
37792;BME280;29527;55.766;37.570;2024-01-27T04:28:09;99827.50;;;-3.93;64.66
37792;BME280;29527;55.766;37.570;2024-01-27T04:30:37;99830.19;;;-3.98;64.80
37792;BME280;29527;55.766;37.570;2024-01-27T04:33:02;99841.34;;;-3.90;65.08
37792;BME280;29527;55.766;37.570;2024-01-27T04:35:29;99839.31;;;-3.77;64.63
37792;BME280;29527;55.766;37.570;2024-01-27T04:37:54;99842.97;;;-3.84;64.64
37792;BME280;29527;55.766;37.570;2024-01-27T04:40:19;99827.81;;;-4.10;65.16
37792;BME280;29527;55.766;37.570;2024-01-27T04:42:45;99790.81;;;-4.34;65.61
37792;BME280;29527;55.766;37.570;2024-01-27T04:45:14;99850.69;;;-3.76;64.50
37792;BME280;29527;55.766;37.570;2024-01-27T04:47:40;99838.94;;;-3.99;65.09
37792;BME280;29527;55.766;37.570;2024-01-27T04:50:05;99850.88;;;-3.85;64.93
37792;BME280;29527;55.766;37.570;2024-01-27T04:52:31;99845.16;;;-3.64;64.01
37792;BME280;29527;55.766;37.570;2024-01-27T04:54:56;99845.66;;;-3.85;65.31
37792;BME280;29527;55.766;37.570;2024-01-27T04:57:22;99848.19;;;-3.82;65.62
37792;BME280;29527;55.766;37.570;2024-01-27T04:59:48;99840.22;;;-3.78;65.27
37792;BME280;29527;55.766;37.570;2024-01-27T05:02:13;99848.88;;;-3.74;65.56
37792;BME280;29527;55.766;37.570;2024-01-27T05:04:39;99793.66;;;-4.01;65.66
37792;BME280;29527;55.766;37.570;2024-01-27T05:07:04;99841.66;;;-3.63;65.39
37792;BME280;29527;55.766;37.570;2024-01-27T05:09:30;99829.59;;;-3.68;64.75
37792;BME280;29527;55.766;37.570;2024-01-27T05:11:55;99853.66;;;-3.52;64.95
37792;BME280;29527;55.766;37.570;2024-01-27T05:14:21;99855.31;;;-3.48;64.78
37792;BME280;29527;55.766;37.570;2024-01-27T05:16:46;99838.28;;;-3.68;64.47
37792;BME280;29527;55.766;37.570;2024-01-27T05:19:12;99848.72;;;-3.66;64.80
37792;BME280;29527;55.766;37.570;2024-01-27T05:21:40;99841.47;;;-3.53;65.10
37792;BME280;29527;55.766;37.570;2024-01-27T05:24:05;99858.75;;;-3.46;63.70
37792;BME280;29527;55.766;37.570;2024-01-27T05:26:31;99866.81;;;-3.55;64.50
37792;BME280;29527;55.766;37.570;2024-01-27T05:28:56;99850.59;;;-3.71;64.70
37792;BME280;29527;55.766;37.570;2024-01-27T05:31:21;99865.19;;;-3.63;64.73
37792;BME280;29527;55.766;37.570;2024-01-27T05:33:47;99866.06;;;-3.61;64.64
37792;BME280;29527;55.766;37.570;2024-01-27T05:36:12;99864.97;;;-3.52;64.42
37792;BME280;29527;55.766;37.570;2024-01-27T05:38:38;99871.66;;;-3.38;63.80
37792;BME280;29527;55.766;37.570;2024-01-27T05:41:03;99881.25;;;-3.39;64.07
37792;BME280;29527;55.766;37.570;2024-01-27T05:43:29;99839.38;;;-3.78;64.18
37792;BME280;29527;55.766;37.570;2024-01-27T05:45:55;99886.81;;;-3.53;64.51
37792;BME280;29527;55.766;37.570;2024-01-27T05:48:20;99879.63;;;-3.43;64.31
37792;BME280;29527;55.766;37.570;2024-01-27T05:50:56;99882.13;;;-3.38;64.61
37792;BME280;29527;55.766;37.570;2024-01-27T05:53:22;99881.16;;;-3.34;64.45
37792;BME280;29527;55.766;37.570;2024-01-27T05:55:47;99888.69;;;-3.19;63.26
37792;BME280;29527;55.766;37.570;2024-01-27T05:58:13;99896.06;;;-3.38;63.81
37792;BME280;29527;55.766;37.570;2024-01-27T06:00:38;99897.88;;;-3.40;64.37
37792;BME280;29527;55.766;37.570;2024-01-27T06:03:03;99852.19;;;-3.66;64.38
37792;BME280;29527;55.766;37.570;2024-01-27T06:05:29;99916.16;;;-3.37;64.00
37792;BME280;29527;55.766;37.570;2024-01-27T06:07:54;99903.41;;;-3.13;63.57
37792;BME280;29527;55.766;37.570;2024-01-27T06:10:20;99901.72;;;-3.17;63.70
37792;BME280;29527;55.766;37.570;2024-01-27T06:12:45;99912.13;;;-3.14;63.92
37792;BME280;29527;55.766;37.570;2024-01-27T06:15:11;99911.19;;;-3.10;64.08
37792;BME280;29527;55.766;37.570;2024-01-27T06:17:36;99913.69;;;-3.05;63.81
37792;BME280;29527;55.766;37.570;2024-01-27T06:20:02;99861.69;;;-3.22;63.89
37792;BME280;29527;55.766;37.570;2024-01-27T06:22:29;99906.53;;;-2.98;63.19
37792;BME280;29527;55.766;37.570;2024-01-27T06:24:57;99917.53;;;-2.82;63.03
37792;BME280;29527;55.766;37.570;2024-01-27T06:27:22;99911.44;;;-2.83;63.07
37792;BME280;29527;55.766;37.570;2024-01-27T06:29:47;99922.47;;;-2.70;62.75
37792;BME280;29527;55.766;37.570;2024-01-27T06:32:13;99930.00;;;-2.56;63.19
37792;BME280;29527;55.766;37.570;2024-01-27T06:34:38;99928.19;;;-2.54;62.49
37792;BME280;29527;55.766;37.570;2024-01-27T06:37:04;99934.88;;;-2.40;62.25
37792;BME280;29527;55.766;37.570;2024-01-27T06:39:30;99926.75;;;-2.31;62.01
37792;BME280;29527;55.766;37.570;2024-01-27T06:41:55;99930.75;;;-2.18;61.19
37792;BME280;29527;55.766;37.570;2024-01-27T06:44:21;99931.91;;;-2.28;61.42
37792;BME280;29527;55.766;37.570;2024-01-27T06:46:47;99938.06;;;-2.29;61.33
37792;BME280;29527;55.766;37.570;2024-01-27T06:49:15;99922.78;;;-2.48;61.68
37792;BME280;29527;55.766;37.570;2024-01-27T06:51:41;99938.25;;;-2.37;62.26
37792;BME280;29527;55.766;37.570;2024-01-27T06:54:07;99948.75;;;-2.37;62.18
37792;BME280;29527;55.766;37.570;2024-01-27T06:56:33;99935.81;;;-2.45;61.80
37792;BME280;29527;55.766;37.570;2024-01-27T06:58:58;99943.69;;;-2.45;62.14
37792;BME280;29527;55.766;37.570;2024-01-27T07:01:24;99937.63;;;-2.47;61.89
37792;BME280;29527;55.766;37.570;2024-01-27T07:03:49;99949.84;;;-2.46;61.79
37792;BME280;29527;55.766;37.570;2024-01-27T07:06:14;99943.81;;;-2.49;61.13
37792;BME280;29527;55.766;37.570;2024-01-27T07:08:40;99946.00;;;-2.68;62.07
37792;BME280;29527;55.766;37.570;2024-01-27T07:11:05;99949.41;;;-2.63;62.81
37792;BME280;29527;55.766;37.570;2024-01-27T07:13:31;99951.25;;;-2.68;62.20
37792;BME280;29527;55.766;37.570;2024-01-27T07:15:56;99963.25;;;-2.58;62.22
37792;BME280;29527;55.766;37.570;2024-01-27T07:18:23;99948.94;;;-2.45;61.28
37792;BME280;29527;55.766;37.570;2024-01-27T07:20:49;99973.50;;;-2.49;61.53
37792;BME280;29527;55.766;37.570;2024-01-27T07:23:14;99966.44;;;-2.45;61.31
37792;BME280;29527;55.766;37.570;2024-01-27T07:25:40;99969.78;;;-2.38;60.77
37792;BME280;29527;55.766;37.570;2024-01-27T07:28:05;99968.16;;;-2.44;60.98
37792;BME280;29527;55.766;37.570;2024-01-27T07:30:31;99987.69;;;-2.56;60.82
37792;BME280;29527;55.766;37.570;2024-01-27T07:32:56;99977.94;;;-2.51;60.63
37792;BME280;29527;55.766;37.570;2024-01-27T07:35:22;99981.75;;;-2.64;62.10
37792;BME280;29527;55.766;37.570;2024-01-27T07:37:47;99985.13;;;-2.59;62.32
37792;BME280;29527;55.766;37.570;2024-01-27T07:40:13;99978.75;;;-2.49;61.76
37792;BME280;29527;55.766;37.570;2024-01-27T07:42:38;99977.75;;;-2.43;61.69
37792;BME280;29527;55.766;37.570;2024-01-27T07:45:04;99985.28;;;-2.29;61.66
37792;BME280;29527;55.766;37.570;2024-01-27T07:47:30;99998.91;;;-2.14;61.49
37792;BME280;29527;55.766;37.570;2024-01-27T07:49:55;99991.50;;;-1.98;60.80
37792;BME280;29527;55.766;37.570;2024-01-27T07:52:21;99994.75;;;-1.89;61.12
37792;BME280;29527;55.766;37.570;2024-01-27T07:54:46;100009.44;;;-1.81;60.24
37792;BME280;29527;55.766;37.570;2024-01-27T07:57:11;99966.91;;;-1.94;61.14
37792;BME280;29527;55.766;37.570;2024-01-27T07:59:37;99956.59;;;-2.02;60.34
37792;BME280;29527;55.766;37.570;2024-01-27T08:02:03;100005.59;;;-1.68;59.71
37792;BME280;29527;55.766;37.570;2024-01-27T08:04:29;99999.44;;;-1.67;59.87
37792;BME280;29527;55.766;37.570;2024-01-27T08:06:55;100003.72;;;-1.64;60.14
37792;BME280;29527;55.766;37.570;2024-01-27T08:09:20;100003.72;;;-1.64;59.84
37792;BME280;29527;55.766;37.570;2024-01-27T08:11:46;99986.13;;;-1.94;59.86
37792;BME280;29527;55.766;37.570;2024-01-27T08:14:16;100011.78;;;-1.72;60.46
37792;BME280;29527;55.766;37.570;2024-01-27T08:16:42;100017.63;;;-1.61;60.15
37792;BME280;29527;55.766;37.570;2024-01-27T08:19:08;100013.09;;;-1.55;60.23
37792;BME280;29527;55.766;37.570;2024-01-27T08:21:33;100018.94;;;-1.44;60.13
37792;BME280;29527;55.766;37.570;2024-01-27T08:23:59;100026.56;;;-1.36;59.90
37792;BME280;29527;55.766;37.570;2024-01-27T08:26:24;100023.03;;;-1.35;59.21
37792;BME280;29527;55.766;37.570;2024-01-27T08:28:50;100014.19;;;-1.31;59.22
37792;BME280;29527;55.766;37.570;2024-01-27T08:31:15;100027.91;;;-1.21;58.97
37792;BME280;29527;55.766;37.570;2024-01-27T08:33:41;100021.09;;;-1.27;58.67
37792;BME280;29527;55.766;37.570;2024-01-27T08:36:06;100028.91;;;-1.25;59.23
37792;BME280;29527;55.766;37.570;2024-01-27T08:38:32;100050.34;;;-1.09;59.67
37792;BME280;29527;55.766;37.570;2024-01-27T08:40:57;100038.78;;;-1.04;58.48
37792;BME280;29527;55.766;37.570;2024-01-27T08:43:23;100042.34;;;-1.05;58.16
37792;BME280;29527;55.766;37.570;2024-01-27T08:45:49;100042.41;;;-1.06;58.37
37792;BME280;29527;55.766;37.570;2024-01-27T08:48:14;99988.25;;;-1.42;58.63
37792;BME280;29527;55.766;37.570;2024-01-27T08:50:40;100033.16;;;-1.21;58.51
37792;BME280;29527;55.766;37.570;2024-01-27T08:53:06;100045.72;;;-1.31;58.61
37792;BME280;29527;55.766;37.570;2024-01-27T08:55:31;100040.75;;;-1.42;58.76
37792;BME280;29527;55.766;37.570;2024-01-27T08:57:56;100021.69;;;-1.49;58.69
37792;BME280;29527;55.766;37.570;2024-01-27T09:00:22;100039.78;;;-1.38;58.89
37792;BME280;29527;55.766;37.570;2024-01-27T09:02:47;100040.53;;;-1.34;59.00
37792;BME280;29527;55.766;37.570;2024-01-27T09:05:13;100036.94;;;-1.30;58.54
37792;BME280;29527;55.766;37.570;2024-01-27T09:07:39;100006.66;;;-1.43;58.90
37792;BME280;29527;55.766;37.570;2024-01-27T09:10:04;100041.00;;;-1.20;58.26
37792;BME280;29527;55.766;37.570;2024-01-27T09:12:30;100046.16;;;-1.17;58.46
37792;BME280;29527;55.766;37.570;2024-01-27T09:14:55;100039.19;;;-1.18;58.48
37792;BME280;29527;55.766;37.570;2024-01-27T09:17:21;100038.34;;;-1.18;58.62
37792;BME280;29527;55.766;37.570;2024-01-27T09:19:47;100023.50;;;-1.19;58.22
37792;BME280;29527;55.766;37.570;2024-01-27T09:22:12;100046.88;;;-1.10;58.11
37792;BME280;29527;55.766;37.570;2024-01-27T09:24:38;100044.25;;;-1.10;58.36
37792;BME280;29527;55.766;37.570;2024-01-27T09:27:03;100044.88;;;-1.02;58.11
37792;BME280;29527;55.766;37.570;2024-01-27T09:29:29;100042.31;;;-1.03;58.20
37792;BME280;29527;55.766;37.570;2024-01-27T09:31:55;100039.06;;;-1.13;58.44
37792;BME280;29527;55.766;37.570;2024-01-27T09:34:20;100028.50;;;-1.11;58.29
37792;BME280;29527;55.766;37.570;2024-01-27T09:36:45;100002.38;;;-1.16;58.47
37792;BME280;29527;55.766;37.570;2024-01-27T09:39:11;100017.06;;;-1.09;57.93
37792;BME280;29527;55.766;37.570;2024-01-27T09:41:37;100039.59;;;-1.02;58.03
37792;BME280;29527;55.766;37.570;2024-01-27T09:44:04;100033.72;;;-1.10;58.21
37792;BME280;29527;55.766;37.570;2024-01-27T09:46:31;100055.47;;;-1.05;58.53
37792;BME280;29527;55.766;37.570;2024-01-27T09:48:57;100052.94;;;-1.08;58.37
37792;BME280;29527;55.766;37.570;2024-01-27T09:51:22;100072.13;;;-1.04;58.55
37792;BME280;29527;55.766;37.570;2024-01-27T09:53:49;100054.72;;;-1.08;58.64
37792;BME280;29527;55.766;37.570;2024-01-27T09:56:16;100023.63;;;-1.24;58.30
37792;BME280;29527;55.766;37.570;2024-01-27T09:58:44;100064.84;;;-0.96;58.11
37792;BME280;29527;55.766;37.570;2024-01-27T10:01:11;100069.41;;;-1.01;57.89
37792;BME280;29527;55.766;37.570;2024-01-27T10:03:40;100075.75;;;-1.08;57.83
37792;BME280;29527;55.766;37.570;2024-01-27T10:06:08;100076.16;;;-1.24;58.31
37792;BME280;29527;55.766;37.570;2024-01-27T10:08:34;100077.25;;;-1.31;58.46
37792;BME280;29527;55.766;37.570;2024-01-27T10:10:59;100080.91;;;-1.37;58.35
37792;BME280;29527;55.766;37.570;2024-01-27T10:13:26;100086.47;;;-1.49;58.87
37792;BME280;29527;55.766;37.570;2024-01-27T10:16:05;100070.88;;;-1.55;58.97
37792;BME280;29527;55.766;37.570;2024-01-27T10:18:32;100080.72;;;-1.64;58.84
37792;BME280;29527;55.766;37.570;2024-01-27T10:20:58;100067.06;;;-1.77;59.05
37792;BME280;29527;55.766;37.570;2024-01-27T10:23:24;100024.78;;;-2.00;59.26
37792;BME280;29527;55.766;37.570;2024-01-27T10:25:49;100079.97;;;-1.69;58.92
37792;BME280;29527;55.766;37.570;2024-01-27T10:28:15;100079.91;;;-1.66;59.79
37792;BME280;29527;55.766;37.570;2024-01-27T10:30:41;100074.66;;;-1.66;59.31
37792;BME280;29527;55.766;37.570;2024-01-27T10:33:10;100088.25;;;-1.50;59.13
37792;BME280;29527;55.766;37.570;2024-01-27T10:35:36;100080.47;;;-1.54;59.73
37792;BME280;29527;55.766;37.570;2024-01-27T10:38:01;100094.06;;;-1.38;59.04
37792;BME280;29527;55.766;37.570;2024-01-27T10:40:27;100102.53;;;-1.27;59.38
37792;BME280;29527;55.766;37.570;2024-01-27T10:43:13;100101.94;;;-1.05;58.89
37792;BME280;29527;55.766;37.570;2024-01-27T10:45:41;100111.66;;;-1.09;58.22
37792;BME280;29527;55.766;37.570;2024-01-27T10:48:10;100106.41;;;-1.09;58.36
37792;BME280;29527;55.766;37.570;2024-01-27T10:50:38;100115.75;;;-0.98;58.58
37792;BME280;29527;55.766;37.570;2024-01-27T10:53:05;100118.16;;;-0.91;57.88
37792;BME280;29527;55.766;37.570;2024-01-27T10:55:34;100120.56;;;-0.83;57.73
37792;BME280;29527;55.766;37.570;2024-01-27T10:58:02;100124.81;;;-0.79;57.74
37792;BME280;29527;55.766;37.570;2024-01-27T11:00:29;100112.06;;;-0.91;57.56
37792;BME280;29527;55.766;37.570;2024-01-27T11:03:01;100122.28;;;-0.82;57.94
37792;BME280;29527;55.766;37.570;2024-01-27T11:05:28;100127.94;;;-0.96;58.10
37792;BME280;29527;55.766;37.570;2024-01-27T11:07:58;100125.28;;;-0.94;58.18
37792;BME280;29527;55.766;37.570;2024-01-27T11:10:25;100129.63;;;-0.93;58.06
37792;BME280;29527;55.766;37.570;2024-01-27T11:12:52;100127.00;;;-0.93;57.78
37792;BME280;29527;55.766;37.570;2024-01-27T11:15:21;100133.28;;;-0.99;58.11
37792;BME280;29527;55.766;37.570;2024-01-27T11:17:46;100137.75;;;-1.03;58.05
37792;BME280;29527;55.766;37.570;2024-01-27T11:20:12;100139.56;;;-1.05;58.20
37792;BME280;29527;55.766;37.570;2024-01-27T11:22:38;100124.06;;;-1.14;57.99
37792;BME280;29527;55.766;37.570;2024-01-27T11:25:22;100143.63;;;-0.93;58.27
37792;BME280;29527;55.766;37.570;2024-01-27T11:27:48;100147.28;;;-0.98;58.09
37792;BME280;29527;55.766;37.570;2024-01-27T11:30:30;100153.19;;;-0.90;58.17
37792;BME280;29527;55.766;37.570;2024-01-27T11:33:01;100153.28;;;-0.93;57.87
37792;BME280;29527;55.766;37.570;2024-01-27T11:35:28;100155.09;;;-0.95;57.41
37792;BME280;29527;55.766;37.570;2024-01-27T11:37:54;100152.50;;;-0.97;57.64
37792;BME280;29527;55.766;37.570;2024-01-27T11:40:20;100164.78;;;-0.97;57.74
37792;BME280;29527;55.766;37.570;2024-01-27T11:43:01;100163.63;;;-0.87;58.06
37792;BME280;29527;55.766;37.570;2024-01-27T11:45:27;100167.16;;;-0.88;57.67
37792;BME280;29527;55.766;37.570;2024-01-27T11:47:55;100145.78;;;-1.07;57.41
37792;BME280;29527;55.766;37.570;2024-01-27T11:50:21;100172.22;;;-1.13;57.54
37792;BME280;29527;55.766;37.570;2024-01-27T11:52:47;100120.97;;;-1.63;58.52
37792;BME280;29527;55.766;37.570;2024-01-27T11:55:13;100171.88;;;-1.34;58.92
37792;BME280;29527;55.766;37.570;2024-01-27T11:57:41;100171.75;;;-1.30;58.21
37792;BME280;29527;55.766;37.570;2024-01-27T12:00:07;100172.09;;;-1.42;58.57
37792;BME280;29527;55.766;37.570;2024-01-27T12:02:35;100180.03;;;-1.45;58.07
37792;BME280;29527;55.766;37.570;2024-01-27T12:05:01;100197.81;;;-1.56;58.59
37792;BME280;29527;55.766;37.570;2024-01-27T12:07:26;100186.34;;;-1.52;58.34
37792;BME280;29527;55.766;37.570;2024-01-27T12:09:52;100185.41;;;-1.50;58.46
37792;BME280;29527;55.766;37.570;2024-01-27T12:12:17;100202.31;;;-1.62;58.70
37792;BME280;29527;55.766;37.570;2024-01-27T12:14:49;100196.13;;;-1.59;58.82
37792;BME280;29527;55.766;37.570;2024-01-27T12:17:15;100202.50;;;-1.69;59.02
37792;BME280;29527;55.766;37.570;2024-01-27T12:19:49;100194.59;;;-1.68;59.35
37792;BME280;29527;55.766;37.570;2024-01-27T12:22:28;100212.91;;;-1.65;59.44
37792;BME280;29527;55.766;37.570;2024-01-27T12:24:54;100209.50;;;-1.70;59.46
37792;BME280;29527;55.766;37.570;2024-01-27T12:27:21;100223.41;;;-1.65;59.22
37792;BME280;29527;55.766;37.570;2024-01-27T12:29:48;100228.53;;;-1.60;59.17
37792;BME280;29527;55.766;37.570;2024-01-27T12:32:15;100227.53;;;-1.54;58.88
37792;BME280;29527;55.766;37.570;2024-01-27T12:34:42;100226.72;;;-1.58;58.87
37792;BME280;29527;55.766;37.570;2024-01-27T12:37:08;100225.06;;;-1.61;59.17
37792;BME280;29527;55.766;37.570;2024-01-27T12:39:36;100204.25;;;-1.70;59.11